Time;durP1;ratioP1;P1;durP2;ratioP2;P2;SDS_P1;SDS_P2;PMS_P1;PMS_P2;Temp;Humidity;BMP_temperature;BMP_pressure;BME280_temperature;BME280_humidity;BME280_pressure;Samples;Min_cycle;Max_cycle;Signal;HPM_P1;HPM_P2
2022/03/30 00:00:44;;;;;;;;;;;;;;;9.30;73.67;97219.19;1692193;84;20256;-83
2022/03/30 00:03:11;;;;;;;;;;;;;;;9.21;73.61;97222.11;1690199;84;20513;-83
2022/03/30 00:05:39;;;;;;;;;;;;;;;9.15;73.61;97221.31;1691758;84;24726;-82
2022/03/30 00:08:06;;;;;;;;;;;;;;;9.16;73.72;97223.77;1690455;84;23663;-82
2022/03/30 00:10:32;;;;;;;;;;;;;;;9.03;73.64;97219.23;1690205;84;26160;-82
2022/03/30 00:12:58;;;;;;;;;;;;;;;8.98;73.70;97221.88;1687285;84;24448;-82
2022/03/30 00:15:28;;;;;;;;;;;;;;;9.03;73.89;97221.02;1689652;84;20300;-83
2022/03/30 00:17:55;;;;;;;;;;;;;;;8.96;73.92;97215.95;1691916;84;25333;-82
2022/03/30 00:20:21;;;;;;;;;;;;;;;8.78;73.81;97208.68;1682388;84;22092;-82
2022/03/30 00:22:47;;;;;;;;;;;;;;;8.62;73.72;97204.88;1695110;84;21028;-82
2022/03/30 00:25:13;;;;;;;;;;;;;;;8.49;73.67;97197.68;1691083;84;24515;-83
2022/03/30 00:27:46;;;;;;;;;;;;;;;8.38;73.71;97196.77;1661478;85;20245;-83
2022/03/30 00:30:13;;;;;;;;;;;;;;;8.30;73.78;97194.41;1653698;85;24804;-83
2022/03/30 00:32:39;;;;;;;;;;;;;;;8.18;73.86;97181.86;1658336;85;22070;-82
2022/03/30 00:35:07;;;;;;;;;;;;;;;8.10;73.97;97189.95;1664135;85;25984;-82
2022/03/30 00:37:34;;;;;;;;;;;;;;;8.03;74.17;97179.18;1660222;85;24449;-83
2022/03/30 00:40:01;;;;;;;;;;;;;;;8.03;74.40;97184.39;1650291;85;20337;-82
2022/03/30 00:42:27;;;;;;;;;;;;;;;8.19;74.82;97185.30;1657552;85;24766;-83
2022/03/30 00:44:53;;;;;;;;;;;;;;;8.32;75.14;97183.40;1655779;85;20357;-83
2022/03/30 00:47:21;;;;;;;;;;;;;;;8.41;75.44;97185.25;1656599;85;25969;-82
2022/03/30 00:49:47;;;;;;;;;;;;;;;8.41;75.58;97186.55;1662242;85;24461;-83
2022/03/30 00:52:13;;;;;;;;;;;;;;;8.37;75.60;97179.95;1658621;85;20340;-82
2022/03/30 00:54:41;;;;;;;;;;;;;;;8.31;75.62;97181.73;1662933;85;24824;-83
2022/03/30 00:57:13;;;;;;;;;;;;;;;8.22;75.64;97178.55;1655491;85;22799;-83
2022/03/30 01:02:24;;;;;;;;;;;;;;;8.24;75.88;97177.93;1635126;86;24629;-82
2022/03/30 01:04:50;;;;;;;;;;;;;;;8.15;75.93;97178.68;1611364;88;20324;-82
2022/03/30 01:07:16;;;;;;;;;;;;;;;8.10;75.99;97176.45;1623624;87;24815;-82
2022/03/30 01:09:44;;;;;;;;;;;;;;;8.06;76.07;97183.33;1619750;87;20396;-82
2022/03/30 01:12:11;;;;;;;;;;;;;;;7.98;76.14;97186.06;1602652;88;26044;-82
2022/03/30 01:14:37;;;;;;;;;;;;;;;7.94;76.29;97171.63;1623543;88;24541;-82
2022/03/30 01:17:04;;;;;;;;;;;;;;;7.98;76.46;97176.95;1622049;86;20793;-82
2022/03/30 01:19:31;;;;;;;;;;;;;;;7.93;76.61;97173.87;1610432;88;24769;-83
2022/03/30 01:21:57;;;;;;;;;;;;;;;7.90;76.71;97174.61;1623157;87;22223;-82
2022/03/30 01:24:23;;;;;;;;;;;;;;;7.75;76.72;97171.89;1609525;87;26026;-82
2022/03/30 01:26:49;;;;;;;;;;;;;;;7.63;76.80;97167.66;1622587;88;25137;-82
2022/03/30 01:34:47;;;;;;;;;;;;;;;7.39;77.35;97150.86;1623856;88;22185;-83
2022/03/30 01:37:14;;;;;;;;;;;;;;;7.31;77.58;97148.84;1622742;88;25958;-83
2022/03/30 01:39:42;;;;;;;;;;;;;;;7.28;77.82;97143.89;1610134;88;24509;-83
2022/03/30 01:42:09;;;;;;;;;;;;;;;7.28;78.10;97142.59;1609958;88;20316;-83
2022/03/30 01:44:36;;;;;;;;;;;;;;;7.27;78.38;97138.80;1612327;87;24786;-83
2022/03/30 01:47:02;;;;;;;;;;;;;;;7.25;78.65;97138.11;1605388;87;22196;-84
2022/03/30 01:49:28;;;;;;;;;;;;;;;7.27;78.89;97137.49;1598635;88;25999;-83
2022/03/30 01:51:56;;;;;;;;;;;;;;;7.27;79.19;97135.72;1604884;88;24551;-83
2022/03/30 01:54:28;;;;;;;;;;;;;;;7.29;79.49;97134.31;1607990;88;20250;-83
2022/03/30 01:56:55;;;;;;;;;;;;;;;7.29;79.76;97133.01;1611134;88;24837;-83
2022/03/30 01:59:21;;;;;;;;;;;;;;;7.41;80.18;97130.30;1601424;88;22100;-83
2022/03/30 02:01:47;;;;;;;;;;;;;;;7.60;80.58;97139.25;1612924;88;26014;-83
2022/03/30 02:04:14;;;;;;;;;;;;;;;7.66;80.79;97138.30;1617305;88;24459;-83
2022/03/30 02:06:41;;;;;;;;;;;;;;;7.69;80.90;97137.24;1609551;87;20229;-83
2022/03/30 02:09:08;;;;;;;;;;;;;;;7.70;80.97;97133.19;1610587;88;24774;-83
2022/03/30 02:11:34;;;;;;;;;;;;;;;7.67;81.00;97139.95;1605671;88;21952;-83
2022/03/30 02:14:01;;;;;;;;;;;;;;;7.63;81.02;97134.64;1603851;87;26008;-83
2022/03/30 02:16:28;;;;;;;;;;;;;;;7.61;81.01;97138.30;1606374;88;24518;-83
2022/03/30 02:18:54;;;;;;;;;;;;;;;7.52;80.93;97130.28;1607237;87;20238;-83
2022/03/30 02:21:20;;;;;;;;;;;;;;;7.48;80.89;97125.41;1608184;87;24733;-83
2022/03/30 02:23:49;;;;;;;;;;;;;;;7.48;80.92;97123.64;1610124;88;22728;-83
2022/03/30 02:26:15;;;;;;;;;;;;;;;7.46;80.91;97125.55;1606379;88;25980;-83
2022/03/30 02:28:43;;;;;;;;;;;;;;;7.37;80.91;97129.33;1607450;88;24521;-83
2022/03/30 02:31:10;;;;;;;;;;;;;;;7.27;80.90;97129.22;1607198;87;20590;-83
2022/03/30 02:33:36;;;;;;;;;;;;;;;7.20;80.94;97124.12;1605223;88;24992;-83
2022/03/30 02:36:03;;;;;;;;;;;;;;;7.25;81.12;97122.48;1609887;88;21960;-83
2022/03/30 02:38:30;;;;;;;;;;;;;;;7.31;81.31;97122.02;1610696;87;26257;-85
2022/03/30 02:40:58;;;;;;;;;;;;;;;7.32;81.47;97123.66;1607341;87;24468;-85
2022/03/30 02:43:24;;;;;;;;;;;;;;;7.34;81.62;97127.80;1607386;88;20416;-84
2022/03/30 02:45:50;;;;;;;;;;;;;;;7.32;81.77;97121.05;1607031;88;24705;-84
2022/03/30 02:48:19;;;;;;;;;;;;;;;7.32;81.96;97121.05;1610367;87;20824;-84
2022/03/30 02:50:50;;;;;;;;;;;;;;;7.36;82.19;97118.11;1607398;88;26043;-84
2022/03/30 02:53:16;;;;;;;;;;;;;;;7.43;82.47;97118.44;1607198;87;24534;-84
2022/03/30 02:55:49;;;;;;;;;;;;;;;7.52;82.63;97120.34;1603501;88;20645;-84
2022/03/30 02:58:15;;;;;;;;;;;;;;;7.62;82.83;97118.66;1606830;88;25003;-83
2022/03/30 03:00:42;;;;;;;;;;;;;;;7.67;82.94;97119.13;1608549;87;22141;-84
2022/03/30 03:03:09;;;;;;;;;;;;;;;7.70;83.04;97117.56;1608616;87;26159;-83
2022/03/30 03:05:35;;;;;;;;;;;;;;;7.70;83.11;97116.27;1607551;88;24832;-83
2022/03/30 03:08:01;;;;;;;;;;;;;;;7.56;83.02;97108.27;1610689;88;20278;-83
2022/03/30 03:10:28;;;;;;;;;;;;;;;7.46;82.98;97115.61;1608021;88;24766;-84
2022/03/30 03:12:54;;;;;;;;;;;;;;;7.52;83.15;97112.53;1611096;88;22042;-84
2022/03/30 03:15:21;;;;;;;;;;;;;;;7.58;83.34;97115.13;1613332;88;26166;-83
2022/03/30 03:17:49;;;;;;;;;;;;;;;7.60;83.50;97116.64;1606719;88;24556;-83
2022/03/30 03:20:17;;;;;;;;;;;;;;;7.55;83.58;97117.02;1608516;88;20185;-83
2022/03/30 03:22:43;;;;;;;;;;;;;;;7.51;83.58;97120.81;1611117;88;25033;-85
2022/03/30 03:25:10;;;;;;;;;;;;;;;7.52;83.66;97112.53;1604120;88;22061;-85
2022/03/30 03:27:36;;;;;;;;;;;;;;;7.57;83.76;97119.50;1618016;88;25969;-85
2022/03/30 03:30:03;;;;;;;;;;;;;;;7.58;83.88;97117.73;1606597;87;24525;-84
2022/03/30 03:32:29;;;;;;;;;;;;;;;7.58;83.97;97117.27;1609616;88;20261;-85
2022/03/30 03:34:55;;;;;;;;;;;;;;;7.57;84.04;97110.39;1620071;88;24934;-84
2022/03/30 03:37:21;;;;;;;;;;;;;;;7.48;84.00;97111.09;1622207;86;20848;-84
2022/03/30 03:39:48;;;;;;;;;;;;;;;7.46;84.06;97113.84;1618223;87;25975;-84
2022/03/30 03:42:14;;;;;;;;;;;;;;;7.52;84.27;97113.83;1613586;86;24643;-85
2022/03/30 03:44:40;;;;;;;;;;;;;;;7.52;84.38;97113.83;1623007;87;20233;-84
2022/03/30 03:47:08;;;;;;;;;;;;;;;7.54;84.44;97108.02;1624500;86;24969;-85
2022/03/30 03:49:37;;;;;;;;;;;;;;;7.60;84.54;97104.09;1620397;88;22066;-85
2022/03/30 03:52:03;;;;;;;;;;;;;;;7.66;84.61;97104.92;1604864;87;25905;-85
2022/03/30 03:54:32;;;;;;;;;;;;;;;7.67;84.63;97103.98;1612645;88;24430;-85
2022/03/30 03:57:04;;;;;;;;;;;;;;;7.69;84.68;97102.89;1619292;88;20317;-85
2022/03/30 03:59:30;;;;;;;;;;;;;;;7.65;84.69;97101.95;1604672;86;24810;-85
2022/03/30 04:01:56;;;;;;;;;;;;;;;7.59;84.73;97100.67;1622300;86;21985;-85
2022/03/30 04:04:22;;;;;;;;;;;;;;;7.62;84.91;97099.61;1622883;88;26036;-85
2022/03/30 04:06:49;;;;;;;;;;;;;;;7.64;85.06;97096.42;1622603;88;20331;-84
2022/03/30 04:09:15;;;;;;;;;;;;;;;7.66;85.25;97095.34;1624200;87;20220;-84
2022/03/30 04:11:44;;;;;;;;;;;;;;;7.72;85.41;97095.33;1601521;87;20272;-85
2022/03/30 04:14:17;;;;;;;;;;;;;;;7.73;85.51;97093.91;1623833;86;22673;-84
2022/03/30 04:16:43;;;;;;;;;;;;;;;7.72;85.57;97096.63;1604611;86;26096;-84
2022/03/30 04:19:13;;;;;;;;;;;;;;;7.66;85.55;97099.71;1623528;88;25380;-84
2022/03/30 04:21:39;;;;;;;;;;;;;;;7.54;85.46;97091.09;1610721;88;20296;-84
2022/03/30 04:24:07;;;;;;;;;;;;;;;7.54;85.55;97087.19;1607418;88;24764;-84
2022/03/30 04:26:33;;;;;;;;;;;;;;;7.41;85.51;97082.14;1611384;87;22092;-84
2022/03/30 04:28:59;;;;;;;;;;;;;;;7.30;85.54;97082.16;1609123;87;26078;-84
2022/03/30 04:31:25;;;;;;;;;;;;;;;7.16;85.55;97081.09;1609665;88;20327;-84
2022/03/30 04:33:53;;;;;;;;;;;;;;;7.21;85.79;97084.16;1605353;87;20283;-84
2022/03/30 04:36:19;;;;;;;;;;;;;;;7.29;86.11;97087.00;1605080;88;24737;-84
2022/03/30 04:38:46;;;;;;;;;;;;;;;7.28;86.26;97087.11;1595206;88;21927;-84
2022/03/30 04:41:12;;;;;;;;;;;;;;;7.24;86.42;97085.23;1590295;88;26123;-84
2022/03/30 04:43:39;;;;;;;;;;;;;;;7.25;86.56;97089.97;1605034;88;24477;-84
2022/03/30 04:46:05;;;;;;;;;;;;;;;7.25;86.73;97089.97;1596850;88;20602;-84
2022/03/30 04:48:33;;;;;;;;;;;;;;;7.29;86.91;97084.88;1606047;88;24739;-85
2022/03/30 04:51:01;;;;;;;;;;;;;;;7.37;87.13;97088.98;1608234;88;22401;-84
2022/03/30 04:53:30;;;;;;;;;;;;;;;7.41;87.28;97082.14;1609425;88;26837;-84
2022/03/30 04:55:56;;;;;;;;;;;;;;;7.49;87.42;97084.13;1606761;87;24848;-83
2022/03/30 04:58:22;;;;;;;;;;;;;;;7.54;87.52;97081.52;1611686;88;20487;-83
2022/03/30 05:00:49;;;;;;;;;;;;;;;7.58;87.57;97084.22;1609341;88;24823;-83
2022/03/30 05:03:15;;;;;;;;;;;;;;;7.61;87.69;97076.65;1607022;87;21951;-84
2022/03/30 05:05:43;;;;;;;;;;;;;;;7.65;87.75;97086.33;1607310;89;24358;-83
2022/03/30 05:08:11;;;;;;;;;;;;;;;7.50;87.64;97079.27;1596306;88;24591;-83
2022/03/30 05:10:37;;;;;;;;;;;;;;;7.47;87.72;97076.43;1600264;88;20231;-84
2022/03/30 05:13:04;;;;;;;;;;;;;;;7.58;87.93;97079.98;1606273;88;24833;-83
2022/03/30 05:15:33;;;;;;;;;;;;;;;7.70;88.16;97082.89;1606449;88;22765;-83
2022/03/30 05:18:00;;;;;;;;;;;;;;;7.79;88.27;97079.57;1605716;88;26580;-82
2022/03/30 05:20:27;;;;;;;;;;;;;;;7.87;88.41;97084.50;1607897;87;24371;-83
2022/03/30 05:22:53;;;;;;;;;;;;;;;7.91;88.48;97081.99;1610170;87;20308;-83
2022/03/30 05:25:37;;;;;;;;;;;;;;;7.92;88.49;97082.35;1607647;87;20253;-83
2022/03/30 05:28:03;;;;;;;;;;;;;;;7.95;88.49;97082.13;1607333;88;21978;-83
2022/03/30 05:30:30;;;;;;;;;;;;;;;8.00;88.54;97088.26;1607257;87;25987;-83
2022/03/30 05:32:56;;;;;;;;;;;;;;;7.89;88.44;97083.91;1605501;87;24613;-82
2022/03/30 05:35:22;;;;;;;;;;;;;;;7.74;88.30;97083.85;1587585;88;20536;-84
2022/03/30 05:37:48;;;;;;;;;;;;;;;7.65;88.23;97079.83;1609785;87;24728;-84
2022/03/30 05:40:16;;;;;;;;;;;;;;;7.56;88.23;97076.19;1598659;88;22086;-83
2022/03/30 05:42:43;;;;;;;;;;;;;;;7.50;88.31;97077.98;1611465;88;26028;-84
2022/03/30 05:45:09;;;;;;;;;;;;;;;7.42;88.44;97070.76;1580399;89;24522;-84
2022/03/30 05:47:44;;;;;;;;;;;;;;;7.39;88.57;97071.48;1604656;88;20376;-84
2022/03/30 05:50:10;;;;;;;;;;;;;;;7.41;88.79;97072.20;1606155;88;24736;-83
2022/03/30 05:52:36;;;;;;;;;;;;;;;7.60;89.23;97076.77;1609115;88;21994;-84
2022/03/30 05:55:04;;;;;;;;;;;;;;;7.64;89.57;97079.00;1623497;88;26071;-84
2022/03/30 05:57:33;;;;;;;;;;;;;;;7.67;89.89;97077.94;1623391;88;24514;-84
2022/03/30 05:59:59;;;;;;;;;;;;;;;7.66;90.18;97075.81;1605940;87;20355;-84
2022/03/30 06:02:25;;;;;;;;;;;;;;;7.69;90.47;97076.85;1608880;88;25032;-83
2022/03/30 06:04:53;;;;;;;;;;;;;;;7.74;90.70;97078.64;1609686;88;21989;-84
2022/03/30 06:07:20;;;;;;;;;;;;;;;7.75;90.89;97076.36;1607807;88;26275;-84
2022/03/30 06:09:46;;;;;;;;;;;;;;;7.65;90.84;97081.13;1606818;88;24462;-84
2022/03/30 06:12:12;;;;;;;;;;;;;;;7.56;90.80;97082.23;1622862;88;20265;-84
2022/03/30 06:14:39;;;;;;;;;;;;;;;7.56;90.86;97080.92;1613459;87;25626;-84
2022/03/30 06:17:06;;;;;;;;;;;;;;;7.52;90.92;97082.13;1623488;87;22115;-85
2022/03/30 06:19:33;;;;;;;;;;;;;;;7.52;91.02;97083.90;1623546;87;26057;-84
2022/03/30 06:22:05;;;;;;;;;;;;;;;7.51;91.08;97084.84;1622751;88;25150;-84
2022/03/30 06:24:30;;;;;;;;;;;;;;;7.48;91.12;97088.50;1613668;86;20233;-84
2022/03/30 06:26:56;;;;;;;;;;;;;;;7.42;91.16;97088.15;1624157;87;20264;-85
2022/03/30 06:29:22;;;;;;;;;;;;;;;7.38;91.20;97088.05;1610392;88;20339;-86
2022/03/30 06:31:48;;;;;;;;;;;;;;;7.38;91.31;97079.77;1609216;88;21239;-85
2022/03/30 06:34:14;;;;;;;;;;;;;;;7.37;91.43;97091.12;1622951;88;24435;-85
2022/03/30 06:36:40;;;;;;;;;;;;;;;7.42;91.54;97090.28;1606573;88;20275;-85
2022/03/30 06:39:06;;;;;;;;;;;;;;;7.47;91.70;97088.14;1603611;88;24841;-86
2022/03/30 06:41:32;;;;;;;;;;;;;;;7.48;91.83;97081.16;1617295;88;21946;-84
2022/03/30 06:43:59;;;;;;;;;;;;;;;7.46;91.89;97083.08;1611969;88;26006;-82
2022/03/30 06:46:25;;;;;;;;;;;;;;;7.50;92.04;97084.02;1610254;87;24551;-81
2022/03/30 06:48:51;;;;;;;;;;;;;;;7.58;92.31;97076.91;1606536;88;20229;-82
2022/03/30 06:51:19;;;;;;;;;;;;;;;7.67;92.54;97078.77;1608051;88;25472;-81
2022/03/30 06:53:46;;;;;;;;;;;;;;;7.72;92.68;97079.23;1623718;87;22033;-82
2022/03/30 06:56:12;;;;;;;;;;;;;;;7.76;92.77;97079.33;1620162;88;26090;-82
2022/03/30 06:58:38;;;;;;;;;;;;;;;7.82;92.88;97075.41;1612965;88;20275;-82
2022/03/30 07:01:04;;;;;;;;;;;;;;;7.83;92.94;97075.29;1614251;88;20225;-82
2022/03/30 07:03:30;;;;;;;;;;;;;;;7.83;93.00;97081.80;1612637;88;20192;-83
2022/03/30 07:05:57;;;;;;;;;;;;;;;7.86;93.14;97076.33;1626865;88;22064;-82
2022/03/30 07:11:10;;;;;;;;;;;;;;;7.98;93.52;97076.65;1615524;88;24555;-82
2022/03/30 07:13:36;;;;;;;;;;;;;;;8.02;93.64;97069.41;1624348;86;20229;-82
2022/03/30 07:16:02;;;;;;;;;;;;;;;8.08;93.78;97070.68;1633963;86;25077;-82
2022/03/30 07:18:28;;;;;;;;;;;;;;;8.09;93.82;97074.95;1627121;87;21590;-84
2022/03/30 07:20:54;;;;;;;;;;;;;;;8.16;93.96;97073.50;1626073;88;26015;-84
2022/03/30 07:23:23;;;;;;;;;;;;;;;8.20;94.06;97074.42;1624884;86;20339;-84
2022/03/30 07:25:54;;;;;;;;;;;;;;;8.22;94.11;97069.09;1623692;88;20601;-83
2022/03/30 07:28:19;;;;;;;;;;;;;;;8.27;94.18;97072.15;1608579;88;24947;-86
2022/03/30 07:30:48;;;;;;;;;;;;;;;8.34;94.31;97069.43;1609232;88;22191;-83
2022/03/30 07:33:15;;;;;;;;;;;;;;;8.35;94.32;97069.75;1626924;88;25987;-83
2022/03/30 07:35:48;;;;;;;;;;;;;;;8.42;94.42;97070.91;1625233;88;24421;-83
2022/03/30 07:38:21;;;;;;;;;;;;;;;8.49;94.56;97068.63;1626808;88;20225;-83
2022/03/30 07:40:45;;;;;;;;;;;;;;;8.53;94.64;97072.15;1625908;88;24842;-83
2022/03/30 07:43:12;;;;;;;;;;;;;;;8.56;94.65;97076.30;1626163;87;22030;-83
2022/03/30 07:45:47;;;;;;;;;;;;;;;8.62;94.72;97072.67;1629281;86;26030;-83
2022/03/30 07:48:13;;;;;;;;;;;;;;;8.62;94.72;97071.38;1613383;88;24461;-83
2022/03/30 07:50:40;;;;;;;;;;;;;;;8.67;94.70;97070.50;1624319;86;20225;-83
2022/03/30 07:53:08;;;;;;;;;;;;;;;8.80;94.86;97058.57;1615725;87;24938;-83
2022/03/30 07:55:39;;;;;;;;;;;;;;;8.88;94.94;97063.98;1625726;86;22699;-83
2022/03/30 07:58:05;;;;;;;;;;;;;;;8.90;94.86;97055.53;1626756;86;26025;-83
2022/03/30 08:00:31;;;;;;;;;;;;;;;8.94;94.79;97054.34;1625967;88;24391;-83
2022/03/30 08:02:59;;;;;;;;;;;;;;;8.99;94.80;97056.55;1608343;86;20331;-83
2022/03/30 08:05:27;;;;;;;;;;;;;;;9.05;94.79;97061.25;1622139;87;24772;-83
2022/03/30 08:07:53;;;;;;;;;;;;;;;9.06;94.69;97064.17;1624144;86;22806;-83
2022/03/30 08:10:19;;;;;;;;;;;;;;;9.05;94.57;97058.16;1621308;87;26765;-83
2022/03/30 08:12:47;;;;;;;;;;;;;;;9.02;94.34;97060.19;1620727;87;24455;-83
2022/03/30 08:15:16;;;;;;;;;;;;;;;9.01;94.20;97055.91;1621436;87;20270;-83
2022/03/30 08:17:45;;;;;;;;;;;;;;;9.04;94.17;97064.33;1619762;87;24732;-83
2022/03/30 08:22:25;;;;;;;;;;;;;;;9.06;94.13;97056.34;1599874;88;23339;-83
2022/03/30 08:22:39;;;;;;;;;;;;;;;9.06;94.01;97059.78;1594666;88;26020;-83
2022/03/30 08:25:11;;;;;;;;;;;;;;;9.15;94.04;97064.71;1623486;86;20544;-83
2022/03/30 08:27:37;;;;;;;;;;;;;;;9.19;93.96;97066.09;1598597;87;20246;-84
2022/03/30 08:30:08;;;;;;;;;;;;;;;9.26;93.95;97068.53;1617623;86;24782;-82
2022/03/30 08:32:34;;;;;;;;;;;;;;;9.33;93.91;97067.02;1632702;86;21860;-83
2022/03/30 08:35:03;;;;;;;;;;;;;;;9.44;93.94;97060.39;1619221;86;26122;-82
2022/03/30 08:37:33;;;;;;;;;;;;;;;9.59;94.05;97059.08;1630170;86;24412;-82
2022/03/30 08:39:59;;;;;;;;;;;;;;;9.64;93.87;97060.80;1620605;87;20193;-83
2022/03/30 08:42:25;;;;;;;;;;;;;;;9.72;93.67;97064.50;1601373;88;24735;-83
2022/03/30 08:44:51;;;;;;;;;;;;;;;9.71;93.24;97055.84;1612131;87;21895;-83
2022/03/30 08:47:17;;;;;;;;;;;;;;;9.75;92.90;97055.94;1610052;87;26083;-83
2022/03/30 08:49:47;;;;;;;;;;;;;;;9.82;92.62;97058.84;1608095;87;24477;-82
2022/03/30 08:52:12;;;;;;;;;;;;;;;9.90;92.39;97053.73;1609162;87;20225;-83
2022/03/30 08:54:40;;;;;;;;;;;;;;;9.94;92.12;97052.49;1613639;87;24841;-82
2022/03/30 08:57:07;;;;;;;;;;;;;;;9.98;91.80;97049.97;1607165;87;21966;-83
2022/03/30 08:59:33;;;;;;;;;;;;;;;10.03;91.55;97051.70;1607033;87;26006;-83
2022/03/30 09:01:59;;;;;;;;;;;;;;;10.14;91.50;97046.80;1611566;87;20279;-83
2022/03/30 09:04:25;;;;;;;;;;;;;;;10.20;91.22;97055.44;1613844;87;20334;-83
2022/03/30 09:06:53;;;;;;;;;;;;;;;10.17;90.72;97049.98;1607437;87;24927;-83
2022/03/30 09:09:32;;;;;;;;;;;;;;;10.14;90.26;97045.50;1612003;88;22013;-83
2022/03/30 09:12:00;;;;;;;;;;;;;;;10.28;90.16;97049.02;1603938;88;26098;-83
2022/03/30 09:14:30;;;;;;;;;;;;;;;10.40;90.03;97043.98;1612207;88;24556;-82
2022/03/30 09:17:00;;;;;;;;;;;;;;;10.47;89.79;97043.27;1608494;88;20486;-83
2022/03/30 09:19:26;;;;;;;;;;;;;;;10.58;89.62;97041.01;1608641;88;24835;-83
2022/03/30 09:21:57;;;;;;;;;;;;;;;10.53;88.99;97038.47;1617381;87;22077;-82
2022/03/30 09:24:25;;;;;;;;;;;;;;;10.47;88.40;97042.47;1627312;86;26824;-82
2022/03/30 09:26:51;;;;;;;;;;;;;;;10.40;87.76;97042.20;1617505;87;24453;-82
2022/03/30 09:29:25;;;;;;;;;;;;;;;10.43;87.37;97041.91;1616152;88;20230;-83
2022/03/30 09:31:52;;;;;;;;;;;;;;;10.57;87.37;97033.29;1602572;87;24868;-83
2022/03/30 09:34:19;;;;;;;;;;;;;;;10.60;86.98;97029.07;1595384;87;22026;-83
2022/03/30 09:36:45;;;;;;;;;;;;;;;10.70;86.93;97026.77;1604936;87;26073;-83
2022/03/30 09:39:16;;;;;;;;;;;;;;;10.75;86.64;97018.00;1604055;88;24511;-83
2022/03/30 09:41:49;;;;;;;;;;;;;;;10.78;86.22;97019.53;1613006;86;20225;-83
2022/03/30 09:44:16;;;;;;;;;;;;;;;10.89;86.05;97019.34;1620591;88;24907;-83
2022/03/30 09:46:56;;;;;;;;;;;;;;;11.04;85.88;97013.98;1602114;86;22065;-84
2022/03/30 09:49:36;;;;;;;;;;;;;;;11.21;85.86;97007.14;1619431;88;26075;-83
2022/03/30 09:52:15;;;;;;;;;;;;;;;11.18;85.29;97003.52;1619290;86;24459;-83
2022/03/30 09:54:43;;;;;;;;;;;;;;;11.12;84.58;97007.55;1614370;87;20169;-83
2022/03/30 09:57:13;;;;;;;;;;;;;;;11.26;84.36;97000.98;1605563;88;24820;-83
2022/03/30 10:00:00;;;;;;;;;;;;;;;11.31;84.04;96998.27;1618393;88;21982;-83
2022/03/30 10:02:26;;;;;;;;;;;;;;;11.40;83.77;96996.55;1620493;87;26053;-83
2022/03/30 10:04:56;;;;;;;;;;;;;;;11.57;83.78;96986.58;1590260;89;25243;-84
2022/03/30 10:07:29;;;;;;;;;;;;;;;11.65;83.50;96987.16;1575083;90;20487;-84
2022/03/30 10:10:03;;;;;;;;;;;;;;;11.63;82.91;96982.54;1576517;89;25403;-84
2022/03/30 10:12:32;;;;;;;;;;;;;;;11.69;82.54;96980.16;1581808;90;22650;-84
2022/03/30 10:14:58;;;;;;;;;;;;;;;11.85;82.44;96970.33;1577415;89;26067;-84
2022/03/30 10:17:25;;;;;;;;;;;;;;;12.01;82.28;96962.59;1593412;89;24409;-84
2022/03/30 10:19:54;;;;;;;;;;;;;;;11.98;81.63;96965.54;1594926;89;20522;-84
2022/03/30 10:22:22;;;;;;;;;;;;;;;11.95;80.99;96961.89;1594944;89;24879;-84
2022/03/30 10:25:08;;;;;;;;;;;;;;;12.05;80.73;96963.97;1590445;89;22092;-84
2022/03/30 10:27:54;;;;;;;;;;;;;;;12.14;80.34;96959.11;1593804;89;25999;-84
2022/03/30 10:30:25;;;;;;;;;;;;;;;12.25;79.98;96959.34;1595900;88;25252;-84
2022/03/30 10:32:54;;;;;;;;;;;;;;;12.31;79.62;96956.11;1594626;89;21361;-84
2022/03/30 10:35:21;;;;;;;;;;;;;;;12.37;79.24;96962.55;1594765;88;24769;-84
2022/03/30 10:37:55;;;;;;;;;;;;;;;12.33;78.67;96954.14;1597403;89;21994;-83
2022/03/30 10:40:23;;;;;;;;;;;;;;;12.33;78.18;96954.14;1595004;89;26717;-83
2022/03/30 10:42:50;;;;;;;;;;;;;;;12.33;77.71;96955.97;1595384;89;25196;-84
2022/03/30 10:45:30;;;;;;;;;;;;;;;12.39;77.44;96951.39;1596253;88;20237;-83
2022/03/30 10:48:16;;;;;;;;;;;;;;;12.47;77.09;96954.08;1595833;88;25609;-84
2022/03/30 10:50:47;;;;;;;;;;;;;;;12.44;76.46;96946.02;1594994;89;22057;-84
2022/03/30 10:53:36;;;;;;;;;;;;;;;12.40;75.80;96942.06;1596739;89;26758;-83
2022/03/30 10:58:59;;;;;;;;;;;;;;;12.31;74.55;96932.50;1604933;88;20275;-84
2022/03/30 11:01:29;;;;;;;;;;;;;;;12.49;74.45;96933.25;1597239;89;24892;-84
2022/03/30 11:03:57;;;;;;;;;;;;;;;12.50;73.99;96931.45;1603479;89;22005;-84
2022/03/30 11:06:23;;;;;;;;;;;;;;;12.43;73.42;96937.00;1600937;89;26070;-84
2022/03/30 11:08:55;;;;;;;;;;;;;;;12.41;72.94;96925.83;1599112;89;24516;-83
2022/03/30 11:11:24;;;;;;;;;;;;;;;12.45;72.65;96927.16;1600005;88;20246;-84
2022/03/30 11:13:51;;;;;;;;;;;;;;;12.52;72.41;96919.84;1592207;88;24771;-84
2022/03/30 11:16:17;;;;;;;;;;;;;;;12.66;72.29;96922.34;1576504;89;21943;-84
2022/03/30 11:18:57;;;;;;;;;;;;;;;12.72;72.12;96920.41;1568881;91;25950;-84
2022/03/30 11:21:24;;;;;;;;;;;;;;;12.72;71.65;96920.89;1567779;89;24733;-84
2022/03/30 11:23:58;;;;;;;;;;;;;;;12.65;70.96;96918.59;1557448;91;20246;-83
2022/03/30 11:26:26;;;;;;;;;;;;;;;12.58;70.40;96915.77;1578784;88;25992;-84
2022/03/30 11:28:52;;;;;;;;;;;;;;;12.56;69.87;96908.04;1597969;89;22106;-84
2022/03/30 11:31:22;;;;;;;;;;;;;;;12.60;69.63;96909.84;1595358;89;26086;-83
2022/03/30 11:34:06;;;;;;;;;;;;;;;12.79;69.64;96905.69;1606894;88;24453;-83
2022/03/30 11:36:32;;;;;;;;;;;;;;;12.84;69.43;96896.84;1588333;89;20267;-84
2022/03/30 11:39:00;;;;;;;;;;;;;;;12.97;69.23;96901.66;1595626;89;24824;-83
2022/03/30 11:41:26;;;;;;;;;;;;;;;13.07;69.06;96894.95;1601180;88;23802;-84
2022/03/30 11:46:38;;;;;;;;;;;;;;;13.23;68.61;96885.82;1592162;89;24675;-84
2022/03/30 11:49:05;;;;;;;;;;;;;;;13.24;68.17;96880.41;1590781;89;20538;-83
2022/03/30 11:51:32;;;;;;;;;;;;;;;13.32;68.02;96878.27;1606103;88;24747;-83
2022/03/30 11:54:15;;;;;;;;;;;;;;;13.32;67.61;96875.64;1597743;88;21979;-84
2022/03/30 11:56:41;;;;;;;;;;;;;;;13.39;67.30;96869.59;1595594;88;26005;-85
2022/03/30 11:59:07;;;;;;;;;;;;;;;13.49;67.05;96869.42;1626910;86;24427;-84
2022/03/30 12:01:36;;;;;;;;;;;;;;;13.52;66.69;96873.06;1623322;88;20228;-84
2022/03/30 12:04:02;;;;;;;;;;;;;;;13.67;66.68;96863.53;1625471;87;24753;-84
2022/03/30 12:06:29;;;;;;;;;;;;;;;13.80;66.62;96863.83;1625173;86;22007;-84
2022/03/30 12:09:01;;;;;;;;;;;;;;;13.88;66.42;96854.30;1624299;86;25987;-84
2022/03/30 12:11:29;;;;;;;;;;;;;;;13.96;66.26;96858.25;1618422;87;25111;-83
2022/03/30 12:13:56;;;;;;;;;;;;;;;14.00;66.00;96860.37;1628597;86;20237;-84
2022/03/30 12:16:26;;;;;;;;;;;;;;;14.02;65.62;96854.96;1623013;86;24822;-83
2022/03/30 12:19:01;;;;;;;;;;;;;;;14.09;65.37;96859.86;1625846;88;22045;-83
2022/03/30 12:21:26;;;;;;;;;;;;;;;14.15;65.12;96851.30;1628478;86;26035;-83
2022/03/30 12:24:04;;;;;;;;;;;;;;;14.21;64.86;96848.00;1618441;86;24540;-84
2022/03/30 12:26:31;;;;;;;;;;;;;;;14.29;64.57;96846.67;1613035;87;20277;-83
2022/03/30 12:29:02;;;;;;;;;;;;;;;14.32;64.19;96839.75;1625661;86;24771;-83
2022/03/30 12:31:32;;;;;;;;;;;;;;;14.40;63.96;96837.10;1626029;87;22976;-83
2022/03/30 12:33:59;;;;;;;;;;;;;;;14.46;63.62;96834.29;1625117;86;26090;-83
2022/03/30 12:36:33;;;;;;;;;;;;;;;14.54;63.44;96824.56;1625361;87;24685;-84
2022/03/30 12:39:02;;;;;;;;;;;;;;;14.60;63.20;96812.03;1626067;86;20161;-83
2022/03/30 12:41:28;;;;;;;;;;;;;;;14.54;62.62;96807.95;1625225;88;24834;-83
2022/03/30 12:43:59;;;;;;;;;;;;;;;14.55;62.27;96803.02;1626059;87;21988;-83
2022/03/30 12:46:27;;;;;;;;;;;;;;;14.59;62.07;96800.35;1633002;86;26055;-83
2022/03/30 12:48:53;;;;;;;;;;;;;;;14.42;61.47;96800.92;1626211;87;24538;-84
2022/03/30 12:51:19;;;;;;;;;;;;;;;14.20;60.89;96799.81;1625258;88;20236;-84
2022/03/30 12:53:46;;;;;;;;;;;;;;;14.15;60.64;96796.05;1626298;86;24848;-83
2022/03/30 12:56:17;;;;;;;;;;;;;;;14.06;60.26;96796.58;1621484;86;22090;-83
2022/03/30 12:58:51;;;;;;;;;;;;;;;13.85;59.64;96797.63;1622465;87;26005;-83
2022/03/30 13:01:36;;;;;;;;;;;;;;;13.69;59.22;96787.92;1623040;88;24489;-84
2022/03/30 13:04:04;;;;;;;;;;;;;;;13.63;58.99;96785.16;1622898;88;20439;-84
2022/03/30 13:06:30;;;;;;;;;;;;;;;13.70;59.02;96780.38;1624229;87;24747;-83
2022/03/30 13:09:04;;;;;;;;;;;;;;;13.87;59.17;96768.02;1606921;88;22024;-84
2022/03/30 13:11:32;;;;;;;;;;;;;;;13.86;58.93;96768.17;1608964;87;26212;-84
2022/03/30 13:14:00;;;;;;;;;;;;;;;13.89;58.81;96759.48;1628124;88;25290;-84